sensor_id;sensor_type;location;lat;lon;timestamp;pressure;altitude;pressure_sealevel;temperature;humidity
63204;BME280;49297;43.210;27.914;2023-02-23T00:01:19;101353.34;;;7.51;65.91
63204;BME280;49297;43.210;27.914;2023-02-23T00:03:47;101360.53;;;7.49;65.67
63204;BME280;49297;43.210;27.914;2023-02-23T00:06:14;101357.97;;;7.48;65.33
63204;BME280;49297;43.210;27.914;2023-02-23T00:08:40;101360.81;;;7.44;65.53
63204;BME280;49297;43.210;27.914;2023-02-23T00:11:09;101356.59;;;7.42;65.52
63204;BME280;49297;43.210;27.914;2023-02-23T00:13:37;101350.69;;;7.38;65.73
63204;BME280;49297;43.210;27.914;2023-02-23T00:16:14;101349.81;;;7.38;65.49
63204;BME280;49297;43.210;27.914;2023-02-23T00:18:55;101354.44;;;7.34;65.50
63204;BME280;49297;43.210;27.914;2023-02-23T00:21:30;101351.31;;;7.29;65.31
63204;BME280;49297;43.210;27.914;2023-02-23T00:24:10;101353.16;;;7.27;65.80
63204;BME280;49297;43.210;27.914;2023-02-23T00:26:38;101352.34;;;7.27;65.66
63204;BME280;49297;43.210;27.914;2023-02-23T00:29:06;101341.06;;;7.24;65.57
63204;BME280;49297;43.210;27.914;2023-02-23T00:31:34;101361.28;;;7.24;65.60
63204;BME280;49297;43.210;27.914;2023-02-23T00:34:01;101353.28;;;7.26;65.87
63204;BME280;49297;43.210;27.914;2023-02-23T00:36:30;101349.78;;;7.25;66.29
63204;BME280;49297;43.210;27.914;2023-02-23T00:38:58;101345.50;;;7.24;65.98
63204;BME280;49297;43.210;27.914;2023-02-23T00:41:28;101343.03;;;7.21;66.12
63204;BME280;49297;43.210;27.914;2023-02-23T00:43:58;101332.59;;;7.19;66.10
63204;BME280;49297;43.210;27.914;2023-02-23T00:46:27;101342.41;;;7.17;65.92
63204;BME280;49297;43.210;27.914;2023-02-23T00:48:54;101350.41;;;7.16;66.24
63204;BME280;49297;43.210;27.914;2023-02-23T00:51:22;101333.88;;;7.14;66.37
63204;BME280;49297;43.210;27.914;2023-02-23T00:53:48;101339.13;;;7.14;66.38
63204;BME280;49297;43.210;27.914;2023-02-23T00:56:14;101335.66;;;7.13;66.56
63204;BME280;49297;43.210;27.914;2023-02-23T00:58:41;101333.13;;;7.12;66.72
63204;BME280;49297;43.210;27.914;2023-02-23T01:01:09;101334.06;;;7.11;66.57
63204;BME280;49297;43.210;27.914;2023-02-23T01:03:36;101340.16;;;7.11;66.64
63204;BME280;49297;43.210;27.914;2023-02-23T01:06:05;101333.13;;;7.12;66.71
63204;BME280;49297;43.210;27.914;2023-02-23T01:08:32;101338.19;;;7.15;67.36
63204;BME280;49297;43.210;27.914;2023-02-23T01:11:04;101332.81;;;7.16;66.93
63204;BME280;49297;43.210;27.914;2023-02-23T01:13:30;101333.66;;;7.17;67.38
63204;BME280;49297;43.210;27.914;2023-02-23T01:15:56;101335.34;;;7.18;67.72
63204;BME280;49297;43.210;27.914;2023-02-23T01:18:22;101323.97;;;7.17;67.85
63204;BME280;49297;43.210;27.914;2023-02-23T01:20:48;101320.41;;;7.18;68.12
63204;BME280;49297;43.210;27.914;2023-02-23T01:23:15;101328.41;;;7.17;68.03
63204;BME280;49297;43.210;27.914;2023-02-23T01:25:42;101313.44;;;7.17;68.13
63204;BME280;49297;43.210;27.914;2023-02-23T01:28:10;101312.59;;;7.17;68.36
63204;BME280;49297;43.210;27.914;2023-02-23T01:30:37;101312.59;;;7.17;68.45
63204;BME280;49297;43.210;27.914;2023-02-23T01:33:03;101308.25;;;7.16;68.24
63204;BME280;49297;43.210;27.914;2023-02-23T01:35:29;101311.72;;;7.16;68.27
63204;BME280;49297;43.210;27.914;2023-02-23T01:37:55;101309.97;;;7.17;68.54
63204;BME280;49297;43.210;27.914;2023-02-23T01:40:22;101316.81;;;7.19;68.59
63204;BME280;49297;43.210;27.914;2023-02-23T01:43:18;101318.50;;;7.20;69.12
63204;BME280;49297;43.210;27.914;2023-02-23T01:45:43;101301.00;;;7.19;68.87
63204;BME280;49297;43.210;27.914;2023-02-23T01:48:14;101308.06;;;7.19;69.24
63204;BME280;49297;43.210;27.914;2023-02-23T01:50:58;101312.50;;;7.18;68.75
63204;BME280;49297;43.210;27.914;2023-02-23T01:53:28;101303.63;;;7.19;69.27
63204;BME280;49297;43.210;27.914;2023-02-23T01:55:58;101315.13;;;7.18;69.21
63204;BME280;49297;43.210;27.914;2023-02-23T01:58:26;101312.59;;;7.17;69.18
63204;BME280;49297;43.210;27.914;2023-02-23T02:00:55;101319.63;;;7.16;69.26
63204;BME280;49297;43.210;27.914;2023-02-23T02:03:35;101317.78;;;7.18;69.67
63204;BME280;49297;43.210;27.914;2023-02-23T02:06:03;101326.41;;;7.20;69.54
63204;BME280;49297;43.210;27.914;2023-02-23T02:08:30;101327.97;;;7.23;69.58
63204;BME280;49297;43.210;27.914;2023-02-23T02:10:57;101313.97;;;7.22;70.13
63204;BME280;49297;43.210;27.914;2023-02-23T02:13:28;101320.91;;;7.23;70.05
63204;BME280;49297;43.210;27.914;2023-02-23T02:31:13;101335.50;;;7.29;70.51
63204;BME280;49297;43.210;27.914;2023-02-23T02:42:21;101339.41;;;7.36;70.25
63204;BME280;49297;43.210;27.914;2023-02-23T02:47:27;101339.94;;;7.41;70.34
63204;BME280;49297;43.210;27.914;2023-02-23T02:52:35;101351.78;;;7.49;70.36
63204;BME280;49297;43.210;27.914;2023-02-23T02:55:37;101347.03;;;7.54;70.48
63204;BME280;49297;43.210;27.914;2023-02-23T02:58:04;101350.09;;;7.60;70.41
63204;BME280;49297;43.210;27.914;2023-02-23T03:00:40;101354.09;;;7.66;71.19
63204;BME280;49297;43.210;27.914;2023-02-23T03:03:29;101364.34;;;7.71;71.29
63204;BME280;49297;43.210;27.914;2023-02-23T03:06:14;101355.28;;;7.75;70.76
63204;BME280;49297;43.210;27.914;2023-02-23T03:12:26;101357.63;;;7.79;71.55
63204;BME280;49297;43.210;27.914;2023-02-23T03:15:49;101361.72;;;7.84;70.92
63204;BME280;49297;43.210;27.914;2023-02-23T03:21:49;101357.81;;;7.89;71.66
63204;BME280;49297;43.210;27.914;2023-02-23T03:33:35;101365.44;;;7.94;72.03
63204;BME280;49297;43.210;27.914;2023-02-23T03:36:25;101370.72;;;7.94;72.19
63204;BME280;49297;43.210;27.914;2023-02-23T03:39:14;101383.69;;;7.97;72.06
63204;BME280;49297;43.210;27.914;2023-02-23T03:42:05;101380.00;;;7.99;72.04
63204;BME280;49297;43.210;27.914;2023-02-23T03:44:51;101375.34;;;8.03;71.70
63204;BME280;49297;43.210;27.914;2023-02-23T03:47:39;101369.03;;;8.06;71.80
63204;BME280;49297;43.210;27.914;2023-02-23T03:50:40;101372.41;;;8.08;72.06
63204;BME280;49297;43.210;27.914;2023-02-23T03:53:32;101385.38;;;8.11;72.03
63204;BME280;49297;43.210;27.914;2023-02-23T03:56:19;101387.91;;;8.12;71.76
63204;BME280;49297;43.210;27.914;2023-02-23T03:59:07;101388.75;;;8.13;71.77
63204;BME280;49297;43.210;27.914;2023-02-23T04:01:54;101388.88;;;8.11;72.45
63204;BME280;49297;43.210;27.914;2023-02-23T04:04:41;101382.84;;;8.09;72.42
63204;BME280;49297;43.210;27.914;2023-02-23T04:07:26;101384.09;;;8.04;72.26
63204;BME280;49297;43.210;27.914;2023-02-23T04:10:11;101397.28;;;8.04;72.22
63204;BME280;49297;43.210;27.914;2023-02-23T04:13:02;101402.56;;;8.04;73.00
63204;BME280;49297;43.210;27.914;2023-02-23T04:15:59;101389.28;;;8.05;73.07
63204;BME280;49297;43.210;27.914;2023-02-23T04:18:28;101396.03;;;8.09;72.63
63204;BME280;49297;43.210;27.914;2023-02-23T04:20:56;101402.44;;;8.05;72.78
63204;BME280;49297;43.210;27.914;2023-02-23T04:23:23;101403.19;;;8.07;72.89
63204;BME280;49297;43.210;27.914;2023-02-23T04:25:50;101389.06;;;8.08;73.14
63204;BME280;49297;43.210;27.914;2023-02-23T04:28:16;101391.69;;;8.08;73.02
63204;BME280;49297;43.210;27.914;2023-02-23T04:30:42;101399.09;;;8.03;73.01
63204;BME280;49297;43.210;27.914;2023-02-23T04:33:08;101400.69;;;8.06;72.95
63204;BME280;49297;43.210;27.914;2023-02-23T04:35:34;101404.06;;;8.08;72.84
63204;BME280;49297;43.210;27.914;2023-02-23T04:38:00;101390.00;;;8.07;72.84
63204;BME280;49297;43.210;27.914;2023-02-23T04:40:26;101391.81;;;8.07;73.55
63204;BME280;49297;43.210;27.914;2023-02-23T04:42:52;101398.97;;;8.05;73.00
63204;BME280;49297;43.210;27.914;2023-02-23T04:45:19;101399.81;;;8.05;73.24
63204;BME280;49297;43.210;27.914;2023-02-23T04:47:45;101408.59;;;8.06;73.33
63204;BME280;49297;43.210;27.914;2023-02-23T04:50:11;101398.88;;;8.06;73.24
63204;BME280;49297;43.210;27.914;2023-02-23T04:52:37;101403.97;;;8.09;73.15
63204;BME280;49297;43.210;27.914;2023-02-23T04:55:05;101407.63;;;8.07;73.46
63204;BME280;49297;43.210;27.914;2023-02-23T04:57:32;101411.34;;;8.04;72.94
63204;BME280;49297;43.210;27.914;2023-02-23T04:59:58;101413.75;;;8.07;73.19
63204;BME280;49297;43.210;27.914;2023-02-23T05:02:24;101415.44;;;8.08;73.52
63204;BME280;49297;43.210;27.914;2023-02-23T05:04:50;101415.34;;;8.10;72.88
63204;BME280;49297;43.210;27.914;2023-02-23T05:07:16;101419.88;;;8.08;73.13
63204;BME280;49297;43.210;27.914;2023-02-23T05:09:42;101426.19;;;8.05;72.74
63204;BME280;49297;43.210;27.914;2023-02-23T05:12:08;101426.00;;;8.08;73.36
63204;BME280;49297;43.210;27.914;2023-02-23T05:14:34;101429.56;;;8.07;73.11
63204;BME280;49297;43.210;27.914;2023-02-23T05:16:59;101432.00;;;8.10;73.36
63204;BME280;49297;43.210;27.914;2023-02-23T05:19:25;101438.00;;;8.12;73.21
63204;BME280;49297;43.210;27.914;2023-02-23T05:21:51;101431.81;;;8.13;72.73
63204;BME280;49297;43.210;27.914;2023-02-23T05:24:17;101441.19;;;8.17;73.02
63204;BME280;49297;43.210;27.914;2023-02-23T05:26:44;101440.25;;;8.18;72.87
63204;BME280;49297;43.210;27.914;2023-02-23T05:29:10;101437.63;;;8.18;73.46
63204;BME280;49297;43.210;27.914;2023-02-23T05:31:36;101440.16;;;8.20;73.26
63204;BME280;49297;43.210;27.914;2023-02-23T05:34:02;101453.00;;;8.25;73.62
63204;BME280;49297;43.210;27.914;2023-02-23T05:36:28;101455.53;;;8.26;73.07
63204;BME280;49297;43.210;27.914;2023-02-23T05:38:54;101451.34;;;8.24;72.72
63204;BME280;49297;43.210;27.914;2023-02-23T05:41:21;101456.38;;;8.27;73.48
63204;BME280;49297;43.210;27.914;2023-02-23T05:43:49;101460.53;;;8.31;72.83
63204;BME280;49297;43.210;27.914;2023-02-23T05:46:23;101466.84;;;8.28;72.90
63204;BME280;49297;43.210;27.914;2023-02-23T05:48:50;101470.53;;;8.26;72.96
63204;BME280;49297;43.210;27.914;2023-02-23T05:51:16;101479.19;;;8.28;72.99
63204;BME280;49297;43.210;27.914;2023-02-23T05:53:43;101484.25;;;8.31;73.23
63204;BME280;49297;43.210;27.914;2023-02-23T05:56:13;101482.38;;;8.33;72.67
63204;BME280;49297;43.210;27.914;2023-02-23T05:58:46;101486.56;;;8.35;72.65
63204;BME280;49297;43.210;27.914;2023-02-23T06:01:11;101493.66;;;8.35;72.96
63204;BME280;49297;43.210;27.914;2023-02-23T06:03:37;101488.19;;;8.38;72.73
63204;BME280;49297;43.210;27.914;2023-02-23T06:06:03;101492.31;;;8.42;72.82
63204;BME280;49297;43.210;27.914;2023-02-23T06:08:29;101489.59;;;8.44;72.91
63204;BME280;49297;43.210;27.914;2023-02-23T06:10:55;101497.16;;;8.48;72.85
63204;BME280;49297;43.210;27.914;2023-02-23T06:13:21;101512.50;;;8.56;72.74
63204;BME280;49297;43.210;27.914;2023-02-23T06:15:47;101504.34;;;8.59;71.73
63204;BME280;49297;43.210;27.914;2023-02-23T06:18:13;101508.38;;;8.65;72.28
63204;BME280;49297;43.210;27.914;2023-02-23T06:20:40;101509.00;;;8.68;71.94
63204;BME280;49297;43.210;27.914;2023-02-23T06:23:05;101514.94;;;8.72;71.83
63204;BME280;49297;43.210;27.914;2023-02-23T06:25:32;101522.50;;;8.76;71.37
63204;BME280;49297;43.210;27.914;2023-02-23T06:27:57;101525.06;;;8.78;71.57
63204;BME280;49297;43.210;27.914;2023-02-23T06:30:23;101518.94;;;8.77;71.30
63204;BME280;49297;43.210;27.914;2023-02-23T06:32:49;101519.66;;;8.80;71.83
63204;BME280;49297;43.210;27.914;2023-02-23T06:35:15;101527.28;;;8.84;70.94
63204;BME280;49297;43.210;27.914;2023-02-23T06:37:41;101521.38;;;8.81;70.66
63204;BME280;49297;43.210;27.914;2023-02-23T06:40:08;101529.16;;;8.82;71.02
63204;BME280;49297;43.210;27.914;2023-02-23T06:42:34;101518.41;;;8.85;70.99
63204;BME280;49297;43.210;27.914;2023-02-23T06:45:02;101520.81;;;8.88;71.08
63204;BME280;49297;43.210;27.914;2023-02-23T06:47:28;101527.56;;;8.92;70.87
63204;BME280;49297;43.210;27.914;2023-02-23T06:49:54;101526.53;;;8.95;70.47
63204;BME280;49297;43.210;27.914;2023-02-23T06:52:20;101538.47;;;9.01;70.32
63204;BME280;49297;43.210;27.914;2023-02-23T06:54:46;101529.34;;;9.05;70.28
63204;BME280;49297;43.210;27.914;2023-02-23T06:57:12;101539.94;;;9.05;70.29
63204;BME280;49297;43.210;27.914;2023-02-23T06:59:38;101543.09;;;9.10;70.47
63204;BME280;49297;43.210;27.914;2023-02-23T07:02:04;101540.34;;;9.11;70.01
63204;BME280;49297;43.210;27.914;2023-02-23T07:04:31;101542.66;;;9.16;69.76
63204;BME280;49297;43.210;27.914;2023-02-23T07:06:57;101546.38;;;9.13;69.86
63204;BME280;49297;43.210;27.914;2023-02-23T07:09:23;101553.00;;;9.19;69.89
63204;BME280;49297;43.210;27.914;2023-02-23T07:11:49;101549.19;;;9.23;70.17
63204;BME280;49297;43.210;27.914;2023-02-23T07:14:16;101547.06;;;9.28;70.14
63204;BME280;49297;43.210;27.914;2023-02-23T07:16:42;101556.50;;;9.32;69.11
63204;BME280;49297;43.210;27.914;2023-02-23T07:19:07;101552.34;;;9.41;69.56
63204;BME280;49297;43.210;27.914;2023-02-23T07:21:33;101564.03;;;9.50;69.67
63204;BME280;49297;43.210;27.914;2023-02-23T07:24:00;101560.97;;;9.56;68.98
63204;BME280;49297;43.210;27.914;2023-02-23T07:26:26;101565.69;;;9.64;68.98
63204;BME280;49297;43.210;27.914;2023-02-23T07:28:52;101566.22;;;9.69;69.42
63204;BME280;49297;43.210;27.914;2023-02-23T07:31:18;101571.38;;;9.70;69.06
63204;BME280;49297;43.210;27.914;2023-02-23T07:33:43;101572.84;;;9.75;68.63
63204;BME280;49297;43.210;27.914;2023-02-23T07:36:10;101560.34;;;9.77;68.34
63204;BME280;49297;43.210;27.914;2023-02-23T07:38:35;101565.66;;;9.77;68.62
63204;BME280;49297;43.210;27.914;2023-02-23T07:41:02;101564.69;;;9.78;68.74
63204;BME280;49297;43.210;27.914;2023-02-23T07:43:29;101559.41;;;9.78;68.58
63204;BME280;49297;43.210;27.914;2023-02-23T07:45:58;101562.63;;;9.70;68.35
63204;BME280;49297;43.210;27.914;2023-02-23T07:48:25;101567.81;;;9.71;68.67
63204;BME280;49297;43.210;27.914;2023-02-23T07:50:51;101574.59;;;9.63;68.56
63204;BME280;49297;43.210;27.914;2023-02-23T07:53:17;101569.94;;;9.66;68.76
63204;BME280;49297;43.210;27.914;2023-02-23T07:55:42;101578.50;;;9.70;69.15
63204;BME280;49297;43.210;27.914;2023-02-23T07:58:09;101575.50;;;9.75;68.75
63204;BME280;49297;43.210;27.914;2023-02-23T08:00:38;101576.72;;;9.82;69.41
63204;BME280;49297;43.210;27.914;2023-02-23T08:03:05;101581.66;;;9.75;68.77
63204;BME280;49297;43.210;27.914;2023-02-23T08:05:31;101588.50;;;9.78;68.90
63204;BME280;49297;43.210;27.914;2023-02-23T08:07:57;101586.47;;;9.81;68.25
63204;BME280;49297;43.210;27.914;2023-02-23T08:10:23;101594.19;;;9.84;68.50
63204;BME280;49297;43.210;27.914;2023-02-23T08:12:49;101595.66;;;9.88;68.46
63204;BME280;49297;43.210;27.914;2023-02-23T08:15:15;101599.44;;;9.97;68.76
63204;BME280;49297;43.210;27.914;2023-02-23T08:17:41;101603.03;;;9.96;68.17
63204;BME280;49297;43.210;27.914;2023-02-23T08:20:08;101611.47;;;10.01;68.16
63204;BME280;49297;43.210;27.914;2023-02-23T08:22:34;101610.41;;;10.04;68.31
63204;BME280;49297;43.210;27.914;2023-02-23T08:25:00;101609.81;;;10.00;68.21
63204;BME280;49297;43.210;27.914;2023-02-23T08:27:33;101610.78;;;10.10;67.97
63204;BME280;49297;43.210;27.914;2023-02-23T08:29:59;101610.41;;;10.04;67.65
63204;BME280;49297;43.210;27.914;2023-02-23T08:32:32;101608.50;;;10.06;67.53
63204;BME280;49297;43.210;27.914;2023-02-23T08:35:00;101613.94;;;10.16;67.75
63204;BME280;49297;43.210;27.914;2023-02-23T08:37:30;101622.78;;;10.27;67.80
63204;BME280;49297;43.210;27.914;2023-02-23T08:39:56;101624.19;;;10.20;66.38
63204;BME280;49297;43.210;27.914;2023-02-23T08:42:22;101617.72;;;10.24;66.80
63204;BME280;49297;43.210;27.914;2023-02-23T08:44:48;101623.44;;;10.31;66.21
63204;BME280;49297;43.210;27.914;2023-02-23T08:47:14;101627.78;;;10.32;65.59
63204;BME280;49297;43.210;27.914;2023-02-23T08:49:41;101633.91;;;10.33;66.08
63204;BME280;49297;43.210;27.914;2023-02-23T08:52:07;101624.91;;;10.35;65.64
63204;BME280;49297;43.210;27.914;2023-02-23T08:54:33;101635.78;;;10.43;65.06
63204;BME280;49297;43.210;27.914;2023-02-23T08:56:58;101630.38;;;10.45;65.01
63204;BME280;49297;43.210;27.914;2023-02-23T08:59:24;101628.22;;;10.50;65.54
63204;BME280;49297;43.210;27.914;2023-02-23T09:01:51;101638.44;;;10.55;64.96
63204;BME280;49297;43.210;27.914;2023-02-23T09:04:17;101635.91;;;10.53;65.24
63204;BME280;49297;43.210;27.914;2023-02-23T09:06:44;101642.06;;;10.54;65.21
63204;BME280;49297;43.210;27.914;2023-02-23T09:09:12;101647.59;;;10.51;64.96
63204;BME280;49297;43.210;27.914;2023-02-23T09:11:39;101652.28;;;10.47;64.46
63204;BME280;49297;43.210;27.914;2023-02-23T09:14:04;101657.38;;;10.37;64.64
63204;BME280;49297;43.210;27.914;2023-02-23T09:16:30;101654.34;;;10.31;65.36
63204;BME280;49297;43.210;27.914;2023-02-23T09:18:56;101659.84;;;10.27;65.19
63204;BME280;49297;43.210;27.914;2023-02-23T09:21:25;101662.19;;;10.19;65.44
63204;BME280;49297;43.210;27.914;2023-02-23T09:23:54;101664.75;;;10.21;65.58
63204;BME280;49297;43.210;27.914;2023-02-23T09:26:22;101661.66;;;10.27;65.99
63204;BME280;49297;43.210;27.914;2023-02-23T09:28:49;101655.81;;;10.35;65.87
63204;BME280;49297;43.210;27.914;2023-02-23T09:31:18;101667.03;;;10.38;66.07
63204;BME280;49297;43.210;27.914;2023-02-23T09:33:46;101670.06;;;10.45;65.61
63204;BME280;49297;43.210;27.914;2023-02-23T09:36:17;101662.03;;;10.46;65.81
63204;BME280;49297;43.210;27.914;2023-02-23T09:38:49;101672.75;;;10.56;65.96
63204;BME280;49297;43.210;27.914;2023-02-23T09:47:06;101684.59;;;10.63;65.09
63204;BME280;49297;43.210;27.914;2023-02-23T09:49:38;101687.63;;;10.70;65.02
63204;BME280;49297;43.210;27.914;2023-02-23T09:52:15;101690.28;;;10.70;64.33
63204;BME280;49297;43.210;27.914;2023-02-23T09:54:42;101681.72;;;10.66;63.63
63204;BME280;49297;43.210;27.914;2023-02-23T09:57:23;101683.63;;;10.64;63.66
63204;BME280;49297;43.210;27.914;2023-02-23T09:59:51;101685.56;;;10.62;64.14
63204;BME280;49297;43.210;27.914;2023-02-23T10:02:22;101688.06;;;10.64;64.52
63204;BME280;49297;43.210;27.914;2023-02-23T10:05:04;101690.00;;;10.62;64.76
63204;BME280;49297;43.210;27.914;2023-02-23T10:13:07;101698.44;;;10.67;64.79
63204;BME280;49297;43.210;27.914;2023-02-23T10:23:12;101693.00;;;10.57;64.59
63204;BME280;49297;43.210;27.914;2023-02-23T10:25:43;101683.47;;;10.55;64.40
63204;BME280;49297;43.210;27.914;2023-02-23T10:28:14;101686.38;;;10.52;64.70
63204;BME280;49297;43.210;27.914;2023-02-23T10:30:41;101691.28;;;10.56;64.84
63204;BME280;49297;43.210;27.914;2023-02-23T10:33:33;101692.31;;;10.66;64.26
63204;BME280;49297;43.210;27.914;2023-02-23T10:36:17;101693.88;;;10.69;64.10
63204;BME280;49297;43.210;27.914;2023-02-23T10:38:45;101687.81;;;10.56;63.56
63204;BME280;49297;43.210;27.914;2023-02-23T10:41:11;101683.06;;;10.48;63.96
63204;BME280;49297;43.210;27.914;2023-02-23T10:43:37;101700.66;;;10.49;64.36
63204;BME280;49297;43.210;27.914;2023-02-23T10:46:04;101684.78;;;10.49;64.05
63204;BME280;49297;43.210;27.914;2023-02-23T10:48:35;101686.38;;;10.52;64.31
63204;BME280;49297;43.210;27.914;2023-02-23T10:51:06;101688.66;;;10.56;63.96
63204;BME280;49297;43.210;27.914;2023-02-23T10:53:37;101693.50;;;10.62;63.69
63204;BME280;49297;43.210;27.914;2023-02-23T10:56:11;101682.56;;;10.67;63.73
63204;BME280;49297;43.210;27.914;2023-02-23T11:01:09;101685.19;;;10.67;63.21
63204;BME280;49297;43.210;27.914;2023-02-23T11:03:39;101695.41;;;10.60;63.23
63204;BME280;49297;43.210;27.914;2023-02-23T11:06:30;101684.44;;;10.54;63.69
63204;BME280;49297;43.210;27.914;2023-02-23T11:08:56;101687.91;;;10.54;63.57
63204;BME280;49297;43.210;27.914;2023-02-23T11:11:25;101693.41;;;10.40;64.06
63204;BME280;49297;43.210;27.914;2023-02-23T11:13:55;101696.66;;;10.43;63.85
63204;BME280;49297;43.210;27.914;2023-02-23T11:16:28;101691.16;;;10.46;63.76
63204;BME280;49297;43.210;27.914;2023-02-23T11:18:55;101700.75;;;10.47;63.07
63204;BME280;49297;43.210;27.914;2023-02-23T11:24:04;101701.44;;;10.62;63.51
63204;BME280;49297;43.210;27.914;2023-02-23T11:26:40;101689.16;;;10.61;63.55
63204;BME280;49297;43.210;27.914;2023-02-23T11:29:28;101690.06;;;10.73;62.85
63204;BME280;49297;43.210;27.914;2023-02-23T11:31:58;101695.06;;;10.89;63.26
63204;BME280;49297;43.210;27.914;2023-02-23T11:34:31;101691.53;;;10.89;62.30
63204;BME280;49297;43.210;27.914;2023-02-23T11:37:06;101693.00;;;10.93;62.34
63204;BME280;49297;43.210;27.914;2023-02-23T11:39:33;101697.34;;;10.94;61.44
63204;BME280;49297;43.210;27.914;2023-02-23T11:42:17;101699.38;;;10.90;61.98
63204;BME280;49297;43.210;27.914;2023-02-23T11:44:48;101708.97;;;10.80;62.19
63204;BME280;49297;43.210;27.914;2023-02-23T11:47:17;101700.50;;;10.75;62.27
63204;BME280;49297;43.210;27.914;2023-02-23T11:49:46;101705.69;;;10.76;61.85
63204;BME280;49297;43.210;27.914;2023-02-23T11:52:19;101701.59;;;10.72;62.28
63204;BME280;49297;43.210;27.914;2023-02-23T11:55:01;101701.25;;;10.77;62.38
63204;BME280;49297;43.210;27.914;2023-02-23T11:57:33;101702.13;;;10.89;62.11
63204;BME280;49297;43.210;27.914;2023-02-23T12:00:07;101701.28;;;10.88;61.82
63204;BME280;49297;43.210;27.914;2023-02-23T12:02:48;101704.16;;;10.85;61.50
63204;BME280;49297;43.210;27.914;2023-02-23T12:05:31;101707.28;;;10.79;61.52
63204;BME280;49297;43.210;27.914;2023-02-23T12:08:10;101708.00;;;10.81;61.84
63204;BME280;49297;43.210;27.914;2023-02-23T12:10:41;101702.13;;;10.89;62.67
63204;BME280;49297;43.210;27.914;2023-02-23T12:15:42;101704.06;;;10.98;61.93
63204;BME280;49297;43.210;27.914;2023-02-23T12:20:55;101696.91;;;10.76;62.45
63204;BME280;49297;43.210;27.914;2023-02-23T12:23:25;101709.06;;;10.78;62.40
63204;BME280;49297;43.210;27.914;2023-02-23T12:25:54;101714.25;;;10.80;62.11
63204;BME280;49297;43.210;27.914;2023-02-23T12:28:55;101713.19;;;10.82;62.01
63204;BME280;49297;43.210;27.914;2023-02-23T12:31:46;101711.00;;;10.76;62.24
63204;BME280;49297;43.210;27.914;2023-02-23T12:34:21;101714.63;;;10.75;62.43
63204;BME280;49297;43.210;27.914;2023-02-23T12:36:56;101715.34;;;10.77;62.44
63204;BME280;49297;43.210;27.914;2023-02-23T12:39:35;101718.22;;;10.74;62.30
63204;BME280;49297;43.210;27.914;2023-02-23T12:42:16;101730.13;;;10.69;62.49
63204;BME280;49297;43.210;27.914;2023-02-23T12:44:50;101726.97;;;10.63;62.84
63204;BME280;49297;43.210;27.914;2023-02-23T12:49:57;101730.56;;;10.38;63.07
63204;BME280;49297;43.210;27.914;2023-02-23T12:52:36;101730.03;;;10.33;63.22
63204;BME280;49297;43.210;27.914;2023-02-23T12:55:10;101725.81;;;10.31;63.51
63204;BME280;49297;43.210;27.914;2023-02-23T12:57:56;101733.84;;;10.29;63.57
63204;BME280;49297;43.210;27.914;2023-02-23T13:00:34;101725.72;;;10.19;64.21
63204;BME280;49297;43.210;27.914;2023-02-23T13:05:46;101730.22;;;10.06;64.56
63204;BME280;49297;43.210;27.914;2023-02-23T13:08:38;101736.75;;;10.13;64.38
63204;BME280;49297;43.210;27.914;2023-02-23T13:14:18;101729.22;;;10.33;63.91
63204;BME280;49297;43.210;27.914;2023-02-23T13:22:24;101735.47;;;10.19;62.67
63204;BME280;49297;43.210;27.914;2023-02-23T13:24:53;101734.31;;;10.10;63.58
63204;BME280;49297;43.210;27.914;2023-02-23T13:29:52;101749.16;;;10.00;63.38
63204;BME280;49297;43.210;27.914;2023-02-23T13:32:23;101741.44;;;9.97;63.81
63204;BME280;49297;43.210;27.914;2023-02-23T13:37:24;101735.53;;;9.93;64.71
63204;BME280;49297;43.210;27.914;2023-02-23T13:39:58;101740.72;;;9.95;64.38
63204;BME280;49297;43.210;27.914;2023-02-23T13:45:46;101748.44;;;9.85;64.67
63204;BME280;49297;43.210;27.914;2023-02-23T13:56:28;101762.09;;;9.79;66.07
63204;BME280;49297;43.210;27.914;2023-02-23T13:58:58;101764.50;;;9.82;65.68
63204;BME280;49297;43.210;27.914;2023-02-23T14:01:38;101767.25;;;9.80;65.28
63204;BME280;49297;43.210;27.914;2023-02-23T14:04:13;101768.13;;;9.81;65.78
63204;BME280;49297;43.210;27.914;2023-02-23T14:06:57;101771.28;;;9.73;66.00
63204;BME280;49297;43.210;27.914;2023-02-23T14:09:30;101777.31;;;9.62;66.88
63204;BME280;49297;43.210;27.914;2023-02-23T14:14:49;101775.94;;;9.44;66.88
63204;BME280;49297;43.210;27.914;2023-02-23T14:22:29;101776.56;;;9.22;67.64
63204;BME280;49297;43.210;27.914;2023-02-23T14:28:32;101784.25;;;9.12;67.49
63204;BME280;49297;43.210;27.914;2023-02-23T14:39:17;101773.13;;;9.07;67.72
63204;BME280;49297;43.210;27.914;2023-02-23T14:41:53;101773.22;;;9.05;67.71
63204;BME280;49297;43.210;27.914;2023-02-23T14:44:36;101775.34;;;9.00;67.86
63204;BME280;49297;43.210;27.914;2023-02-23T14:47:14;101776.09;;;9.02;67.87
63204;BME280;49297;43.210;27.914;2023-02-23T14:49:44;101771.75;;;9.01;67.99
63204;BME280;49297;43.210;27.914;2023-02-23T14:54:50;101786.59;;;8.89;67.91
63204;BME280;49297;43.210;27.914;2023-02-23T14:57:21;101777.84;;;8.89;68.10
63204;BME280;49297;43.210;27.914;2023-02-23T14:59:59;101784.38;;;8.83;67.60
63204;BME280;49297;43.210;27.914;2023-02-23T15:02:28;101781.69;;;8.70;67.17
63204;BME280;49297;43.210;27.914;2023-02-23T15:04:54;101783.38;;;8.71;68.08
63204;BME280;49297;43.210;27.914;2023-02-23T15:07:34;101785.47;;;8.66;67.86
63204;BME280;49297;43.210;27.914;2023-02-23T15:10:08;101786.97;;;8.70;67.34
63204;BME280;49297;43.210;27.914;2023-02-23T15:12:36;101800.06;;;8.72;67.25
63204;BME280;49297;43.210;27.914;2023-02-23T15:15:06;101791.00;;;8.76;67.57